CST,Max TemperatureF,Mean TemperatureF,Min TemperatureF,Max Dew PointF,MeanDew PointF,Min DewpointF,Max Humidity, Mean Humidity, Min Humidity, Max Sea Level PressureIn, Mean Sea Level PressureIn, Min Sea Level PressureIn, Max VisibilityMiles, Mean VisibilityMiles, Min VisibilityMiles, Max Wind SpeedMPH, Mean Wind SpeedMPH, Max Gust SpeedMPH,PrecipitationIn, CloudCover, Events, WindDirDegrees
2012-12-1,75,60,46,56,50,44,93,72,41,30.32,30.28,30.25,10,10,10,8,2,,0.00,1,,93
2012-12-2,75,62,50,59,51,46,94,79,43,30.36,30.29,30.25,10,9,2,7,1,,0.00,1,,126
2012-12-3,75,63,51,59,53,50,100,83,45,30.31,30.26,30.21,10,6,0,10,1,,0.00,4,Fog,163
2012-12-4,77,64,50,63,54,48,100,89,48,30.31,30.25,30.20,10,4,0,9,1,,0.00,3,Fog,166
2012-12-5,73,62,51,59,55,50,97,83,55,30.22,30.15,30.09,10,7,0,8,1,,0.00,0,Fog,168
2012-12-6,75,64,53,57,54,50,90,74,46,30.09,30.04,30.00,10,10,10,7,3,,0.00,2,,79
2012-12-7,64,60,57,59,58,55,100,90,77,30.08,30.02,29.97,10,7,2,6,4,,0.00,6,,100
2012-12-8,75,66,57,63,59,55,100,89,60,30.05,30.01,29.95,10,5,0,8,2,,0.00,6,Fog-Rain,153
2012-12-9,75,68,62,63,62,58,100,85,55,30.12,30.05,29.96,10,7,0,10,3,18,0.01,5,Fog,180
2012-12-10,78,66,53,67,62,50,100,88,62,29.97,29.88,29.78,10,9,1,26,7,34,0.38,6,Rain,198
2012-12-11,53,48,42,50,42,38,90,81,71,30.17,30.05,29.92,10,10,6,8,5,,0.10,7,Rain,7
2012-12-12,51,44,36,39,38,34,93,80,63,30.24,30.18,30.11,10,10,8,7,4,,0.00,3,,5
2012-12-13,62,50,37,45,41,35,96,83,52,30.34,30.29,30.25,10,10,7,10,5,,0.00,2,,29
2012-12-14,60,48,36,48,43,34,97,88,62,30.35,30.27,30.19,10,9,5,9,4,,0.00,4,,85
2012-12-15,68,56,44,58,49,43,96,87,61,30.19,30.13,30.06,10,7,2,6,2,,0.00,4,,127
2012-12-16,72,64,57,66,61,55,100,91,76,30.06,29.97,29.88,10,6,0,14,6,29,0.06,7,Fog-Rain,174
2012-12-17,66,62,59,63,60,55,100,92,82,29.89,29.83,29.78,10,8,1,9,5,,0.54,7,Rain-Thunderstorm,182
2012-12-18,66,54,42,45,41,36,89,65,33,30.06,30.03,29.99,10,10,9,4,0,,0.00,0,,280
2012-12-19,72,54,37,54,45,36,96,78,37,30.12,30.06,30.01,10,9,2,8,2,,0.00,0,,165
2012-12-20,73,60,45,70,56,27,94,80,45,30.15,29.90,29.78,10,7,1,21,9,32,0.65,6,Rain-Thunderstorm,195
2012-12-21,54,44,34,25,20,10,67,43,17,30.33,30.24,30.15,10,10,10,12,3,22,0.00,0,,330
2012-12-22,34,32,30,22,20,19,69,63,59,30.38,30.33,30.31,,,,4,1,,0.00,0,,-1
2012-12-23,,,,,,,,,,,,,,,,,,,,,,
2012-12-24,,,,,,,,,,,,,,,,,,,,,,
2012-12-25,71,66,60,66,63,55,100,88,78,29.98,29.74,29.55,10,7,0,23,10,41,0.97,7,Fog-Rain-Thunderstorm,175
2012-12-26,57,46,35,52,35,30,81,69,56,30.13,29.87,29.57,10,10,10,10,6,28,0.00,4,,319
2012-12-27,52,43,34,36,32,29,89,74,50,30.19,30.13,30.09,10,10,10,10,5,,0.00,3,,3
2012-12-28,57,44,32,55,44,30,100,82,61,30.11,29.94,29.78,8,6,5,9,3,24,0.30,5,Rain,126
2012-12-29,57,48,37,57,41,25,100,79,58,30.36,30.00,29.79,10,9,2,10,5,23,0.00,7,,334
2012-12-30,52,40,28,31,27,24,92,68,37,30.50,30.41,30.35,,,,9,4,,0.00,0,,12
2012-12-31,59,44,30,50,42,28,89,74,61,30.38,30.28,30.15,10,10,10,6,1,,0.00,5,,98